Time;durP1;ratioP1;P1;durP2;ratioP2;P2;SDS_P1;SDS_P2;PMS_P1;PMS_P2;Temp;Humidity;BMP_temperature;BMP_pressure;BME280_temperature;BME280_humidity;BME280_pressure;Samples;Min_cycle;Max_cycle;Signal;HPM_P1;HPM_P2
2022/06/30 00:01:33;;;;;;;33.80;17.65;;;;;;;;;;5053230;27;95523;-73
2022/06/30 00:04:00;;;;;;;31.05;19.50;;;;;;;;;;5068827;27;96235;-73
2022/06/30 00:06:27;;;;;;;30.00;18.88;;;;;;;;;;5068696;27;97908;-73
2022/06/30 00:08:53;;;;;;;24.65;19.35;;;;;;;;;;5068650;27;95262;-73
2022/06/30 00:11:20;;;;;;;32.78;20.27;;;;;;;;;;5047543;27;97397;-73
2022/06/30 00:13:46;;;;;;;23.48;18.23;;;;;;;;;;5056659;27;95728;-73
2022/06/30 00:16:13;;;;;;;26.85;18.92;;;;;;;;;;5047666;27;95901;-73
2022/06/30 00:18:40;;;;;;;22.52;17.83;;;;;;;;;;5049405;27;97304;-72
2022/06/30 00:21:07;;;;;;;25.00;18.70;;;;;;;;;;5049638;27;95444;-72
2022/06/30 00:23:33;;;;;;;23.60;18.13;;;;;;;;;;5048184;27;97106;-72
2022/06/30 00:26:00;;;;;;;24.67;18.70;;;;;;;;;;5049467;27;97294;-72
2022/06/30 00:28:26;;;;;;;28.02;19.27;;;;;;;;;;5066601;27;95947;-72
2022/06/30 00:30:53;;;;;;;26.98;17.90;;;;;;;;;;5066465;27;97360;-72
2022/06/30 00:33:19;;;;;;;32.67;18.63;;;;;;;;;;5036395;27;96582;-72
2022/06/30 00:35:46;;;;;;;17.98;15.07;;;;;;;;;;5048468;27;95716;-72
2022/06/30 00:38:13;;;;;;;19.73;12.57;;;;;;;;;;5039739;27;97395;-72
2022/06/30 00:40:40;;;;;;;18.42;12.75;;;;;;;;;;5047842;27;95544;-72
2022/06/30 00:43:06;;;;;;;15.93;11.43;;;;;;;;;;5049534;27;96580;-72
2022/06/30 00:45:38;;;;;;;17.73;13.95;;;;;;;;;;5048034;27;97357;-72
2022/06/30 00:48:05;;;;;;;15.48;12.45;;;;;;;;;;5064499;27;95240;-72
2022/06/30 00:50:31;;;;;;;15.80;12.27;;;;;;;;;;5050896;27;96867;-72
2022/06/30 00:52:58;;;;;;;13.65;10.60;;;;;;;;;;5048389;27;95200;-72
2022/06/30 00:55:25;;;;;;;13.27;10.57;;;;;;;;;;5048788;27;96772;-72
2022/06/30 00:57:52;;;;;;;15.60;11.30;;;;;;;;;;5057526;27;97303;-72
2022/06/30 01:00:18;;;;;;;15.35;11.13;;;;;;;;;;5051503;27;95609;-72
2022/06/30 01:02:44;;;;;;;15.85;11.80;;;;;;;;;;5051618;27;95771;-72
2022/06/30 01:05:11;;;;;;;16.30;13.35;;;;;;;;;;5051096;27;97313;-72
2022/06/30 01:07:38;;;;;;;22.95;13.13;;;;;;;;;;5051518;27;95253;-72
2022/06/30 01:12:50;;;;;;;16.00;12.07;;;;;;;;;;5058798;27;97215;-72
2022/06/30 01:15:17;;;;;;;13.75;12.13;;;;;;;;;;5062502;27;96759;-72
2022/06/30 01:17:45;;;;;;;17.73;12.02;;;;;;;;;;5050961;27;97358;-72
2022/06/30 01:20:11;;;;;;;14.95;11.32;;;;;;;;;;5049101;27;96701;-72
2022/06/30 01:22:38;;;;;;;14.68;10.57;;;;;;;;;;5053748;27;96652;-72
2022/06/30 01:25:05;;;;;;;14.90;10.18;;;;;;;;;;5071116;27;98782;-72
2022/06/30 01:27:31;;;;;;;13.93;10.85;;;;;;;;;;5062941;27;95961;-72
2022/06/30 01:29:58;;;;;;;13.63;11.50;;;;;;;;;;5051238;27;97264;-72
2022/06/30 01:32:25;;;;;;;14.90;10.98;;;;;;;;;;5050970;27;97223;-72
2022/06/30 01:34:52;;;;;;;16.98;10.88;;;;;;;;;;5053979;27;95378;-72
2022/06/30 01:37:18;;;;;;;15.82;11.25;;;;;;;;;;5045142;27;96892;-72
2022/06/30 01:39:45;;;;;;;18.05;11.77;;;;;;;;;;5059075;27;95405;-72
2022/06/30 01:42:12;;;;;;;17.10;12.88;;;;;;;;;;5051354;27;97100;-72
2022/06/30 01:44:38;;;;;;;17.40;14.43;;;;;;;;;;5052029;27;96267;-72
2022/06/30 01:47:05;;;;;;;25.73;14.15;;;;;;;;;;5064359;27;95817;-72
2022/06/30 01:49:31;;;;;;;17.73;14.20;;;;;;;;;;5070738;27;96694;-72
2022/06/30 01:51:58;;;;;;;25.98;15.55;;;;;;;;;;5069452;27;96786;-72
2022/06/30 01:54:24;;;;;;;17.75;14.65;;;;;;;;;;5069471;27;95598;-72
2022/06/30 01:56:50;;;;;;;28.15;14.27;;;;;;;;;;5042121;27;96379;-72
2022/06/30 01:59:17;;;;;;;17.92;14.43;;;;;;;;;;5056562;27;95926;-72
2022/06/30 02:01:43;;;;;;;18.92;14.52;;;;;;;;;;5050192;27;96778;-72
2022/06/30 02:06:55;;;;;;;21.55;14.75;;;;;;;;;;5050997;27;95275;-72
2022/06/30 02:09:21;;;;;;;18.95;14.18;;;;;;;;;;5049718;27;97023;-72
2022/06/30 02:11:47;;;;;;;19.38;14.65;;;;;;;;;;5067224;27;97305;-72
2022/06/30 02:14:14;;;;;;;27.50;15.07;;;;;;;;;;5054673;27;96025;-72
2022/06/30 02:16:41;;;;;;;24.38;15.57;;;;;;;;;;5050586;27;96006;-72
2022/06/30 02:19:07;;;;;;;26.27;14.73;;;;;;;;;;5053678;27;97328;-71
2022/06/30 02:21:34;;;;;;;16.95;15.00;;;;;;;;;;5050859;27;96770;-72
2022/06/30 02:24:00;;;;;;;18.95;15.93;;;;;;;;;;5048654;27;96307;-72
2022/06/30 02:26:26;;;;;;;20.35;14.38;;;;;;;;;;5064280;27;95712;-72
2022/06/30 02:28:53;;;;;;;29.00;16.30;;;;;;;;;;5054197;27;95697;-71
2022/06/30 02:31:20;;;;;;;19.05;15.95;;;;;;;;;;5050050;27;97300;-73
2022/06/30 02:33:47;;;;;;;18.00;15.50;;;;;;;;;;5050287;27;96493;-72
2022/06/30 02:36:14;;;;;;;26.73;15.80;;;;;;;;;;5061834;27;96419;-72
2022/06/30 02:38:40;;;;;;;21.17;15.52;;;;;;;;;;5073811;27;97253;-72
2022/06/30 02:41:06;;;;;;;23.17;15.52;;;;;;;;;;5070358;27;95988;-73
2022/06/30 02:43:33;;;;;;;23.48;14.25;;;;;;;;;;5069240;27;96380;-72
2022/06/30 02:45:59;;;;;;;21.80;14.68;;;;;;;;;;5060339;27;96643;-73
2022/06/30 02:48:25;;;;;;;21.58;14.70;;;;;;;;;;5050167;27;97100;-73
2022/06/30 02:50:52;;;;;;;17.40;14.55;;;;;;;;;;5030682;27;97515;-72
2022/06/30 02:53:18;;;;;;;19.33;14.50;;;;;;;;;;5050674;27;95650;-73
2022/06/30 02:55:44;;;;;;;20.02;14.82;;;;;;;;;;5049820;27;96764;-73
2022/06/30 02:58:11;;;;;;;18.10;14.02;;;;;;;;;;5050069;27;96263;-72
2022/06/30 03:00:38;;;;;;;18.15;14.02;;;;;;;;;;5052577;27;95415;-73
2022/06/30 03:03:04;;;;;;;16.20;13.57;;;;;;;;;;5030814;27;96560;-72
2022/06/30 03:05:31;;;;;;;18.77;14.13;;;;;;;;;;5047739;27;96491;-72
2022/06/30 03:07:57;;;;;;;18.08;14.15;;;;;;;;;;5049609;27;97539;-72
2022/06/30 03:10:23;;;;;;;17.02;13.90;;;;;;;;;;5049299;27;97169;-72
2022/06/30 03:12:50;;;;;;;17.63;12.90;;;;;;;;;;5049345;27;95439;-72
2022/06/30 03:15:16;;;;;;;19.63;13.95;;;;;;;;;;5048225;27;96455;-72
2022/06/30 03:17:45;;;;;;;16.42;13.65;;;;;;;;;;5048997;27;97935;-72
2022/06/30 03:20:12;;;;;;;17.58;14.18;;;;;;;;;;5049147;27;95318;-72
2022/06/30 03:22:38;;;;;;;20.10;14.40;;;;;;;;;;5058930;27;96749;-72
2022/06/30 03:25:07;;;;;;;21.42;14.68;;;;;;;;;;5054321;27;95353;-72
2022/06/30 03:27:34;;;;;;;22.13;14.18;;;;;;;;;;5063609;27;96910;-72
2022/06/30 03:30:00;;;;;;;25.02;14.40;;;;;;;;;;5051278;27;96228;-72
2022/06/30 03:32:28;;;;;;;21.83;14.27;;;;;;;;;;5069222;27;95370;-72
2022/06/30 03:34:55;;;;;;;31.17;15.13;;;;;;;;;;5068368;27;95642;-72
2022/06/30 03:37:27;;;;;;;21.70;14.68;;;;;;;;;;5056496;27;96641;-72
2022/06/30 03:39:54;;;;;;;16.75;13.32;;;;;;;;;;5048930;27;95436;-72
2022/06/30 03:42:20;;;;;;;21.05;14.13;;;;;;;;;;5049135;27;96940;-72
2022/06/30 03:44:47;;;;;;;20.90;13.85;;;;;;;;;;5061864;27;96870;-72
2022/06/30 03:47:14;;;;;;;17.38;14.48;;;;;;;;;;5069482;27;96728;-72
2022/06/30 03:49:41;;;;;;;17.20;14.02;;;;;;;;;;5055849;27;96683;-72
2022/06/30 03:52:08;;;;;;;19.10;13.68;;;;;;;;;;5049114;27;96608;-72
2022/06/30 03:54:35;;;;;;;19.67;14.32;;;;;;;;;;5053025;27;96916;-73
2022/06/30 03:57:02;;;;;;;19.60;14.13;;;;;;;;;;5044439;27;97594;-72
2022/06/30 03:59:33;;;;;;;17.98;14.55;;;;;;;;;;5047743;27;96002;-72
2022/06/30 04:02:00;;;;;;;18.35;14.43;;;;;;;;;;5067419;27;96731;-72
2022/06/30 04:04:26;;;;;;;18.60;14.38;;;;;;;;;;5067626;27;97239;-72
2022/06/30 04:06:53;;;;;;;17.98;14.10;;;;;;;;;;5068543;27;95726;-72
2022/06/30 04:09:19;;;;;;;18.48;15.20;;;;;;;;;;5045375;27;97421;-72
2022/06/30 04:11:45;;;;;;;18.70;14.50;;;;;;;;;;5048798;27;95392;-73
2022/06/30 04:14:12;;;;;;;17.80;13.88;;;;;;;;;;5049230;27;96429;-72
2022/06/30 04:16:38;;;;;;;20.50;15.48;;;;;;;;;;5066591;27;98365;-73
2022/06/30 04:19:05;;;;;;;23.35;15.32;;;;;;;;;;5048345;27;95828;-73
2022/06/30 04:21:31;;;;;;;20.15;15.38;;;;;;;;;;5047623;27;95226;-73
2022/06/30 04:23:57;;;;;;;20.05;15.40;;;;;;;;;;5048464;27;97362;-73
2022/06/30 04:26:24;;;;;;;20.35;14.88;;;;;;;;;;5062418;27;95431;-71
2022/06/30 04:28:52;;;;;;;20.35;15.60;;;;;;;;;;5050452;27;96598;-71
2022/06/30 04:34:04;;;;;;;20.70;15.05;;;;;;;;;;5051706;27;96864;-71
2022/06/30 04:36:30;;;;;;;18.45;13.82;;;;;;;;;;5068138;27;97102;-71
2022/06/30 04:38:56;;;;;;;20.55;15.27;;;;;;;;;;5051175;27;95778;-73
2022/06/30 04:41:26;;;;;;;25.08;15.98;;;;;;;;;;5035662;27;97063;-71
2022/06/30 04:43:53;;;;;;;20.90;15.77;;;;;;;;;;5059488;27;97266;-71
2022/06/30 04:46:20;;;;;;;23.15;17.00;;;;;;;;;;5056199;27;95609;-71
2022/06/30 04:48:47;;;;;;;21.60;15.88;;;;;;;;;;5074395;27;96660;-71
2022/06/30 19:19:14;;;;;;;4.53;2.50;;;;;;;;;;5007584;27;1295117;-74
2022/06/30 19:21:41;;;;;;;8.63;3.15;;;;;;;;;;5021579;28;98767;-72
2022/06/30 19:24:30;;;;;;;4.85;2.60;;;;;;;;;;5016839;28;95924;-75
2022/06/30 19:26:57;;;;;;;4.07;2.30;;;;;;;;;;5022197;28;96763;-74
2022/06/30 19:29:24;;;;;;;4.63;2.55;;;;;;;;;;5021678;27;97133;-75
2022/06/30 19:31:51;;;;;;;6.40;2.70;;;;;;;;;;5008533;28;95247;-74
2022/06/30 19:34:17;;;;;;;7.63;2.70;;;;;;;;;;5007816;28;96865;-74
2022/06/30 19:36:43;;;;;;;6.03;2.65;;;;;;;;;;5023255;28;97296;-75
2022/06/30 19:39:10;;;;;;;7.60;2.88;;;;;;;;;;5026791;28;95990;-75
2022/06/30 19:41:36;;;;;;;7.80;2.90;;;;;;;;;;5020464;28;98671;-74
2022/06/30 19:44:03;;;;;;;5.25;2.50;;;;;;;;;;5007005;28;95360;-74
2022/06/30 19:46:31;;;;;;;5.75;2.65;;;;;;;;;;5008537;28;97161;-74
2022/06/30 19:48:58;;;;;;;5.15;2.60;;;;;;;;;;5011998;28;97048;-74
2022/06/30 19:51:24;;;;;;;7.53;2.75;;;;;;;;;;5019308;28;95780;-74
2022/06/30 19:53:50;;;;;;;5.15;2.45;;;;;;;;;;5017896;28;96666;-74
2022/06/30 19:56:18;;;;;;;2.92;1.98;;;;;;;;;;5024188;28;97281;-74
2022/06/30 19:58:45;;;;;;;6.70;2.10;;;;;;;;;;5023211;28;96369;-74
2022/06/30 20:01:14;;;;;;;3.45;1.90;;;;;;;;;;5018070;28;96823;-75
2022/06/30 20:06:26;;;;;;;3.47;2.30;;;;;;;;;;5004540;28;96828;-74
2022/06/30 20:11:42;;;;;;;7.47;2.10;;;;;;;;;;5019326;28;97532;-73
2022/06/30 20:14:10;;;;;;;2.40;1.52;;;;;;;;;;5023143;28;96752;-73
2022/06/30 20:16:39;;;;;;;3.15;1.92;;;;;;;;;;5019597;28;97555;-74
2022/06/30 20:19:06;;;;;;;6.95;1.90;;;;;;;;;;5023215;28;95450;-72
2022/06/30 20:21:32;;;;;;;6.60;2.28;;;;;;;;;;5015369;28;96955;-73
2022/06/30 20:23:59;;;;;;;7.03;2.53;;;;;;;;;;5018779;28;97275;-73
2022/06/30 20:26:32;;;;;;;2.78;1.85;;;;;;;;;;5021894;28;96718;-74
2022/06/30 20:28:59;;;;;;;4.47;1.90;;;;;;;;;;5015179;28;97809;-73
2022/06/30 20:31:26;;;;;;;5.57;1.90;;;;;;;;;;5010703;28;96321;-73
2022/06/30 20:33:53;;;;;;;4.30;2.25;;;;;;;;;;5010067;28;97327;-72
2022/06/30 20:36:20;;;;;;;5.70;2.20;;;;;;;;;;4996809;28;96392;-72
2022/06/30 20:38:47;;;;;;;4.75;2.35;;;;;;;;;;5008312;28;95656;-72
2022/06/30 20:41:29;;;;;;;4.57;2.50;;;;;;;;;;5009105;28;96306;-74
2022/06/30 20:44:01;;;;;;;5.15;2.72;;;;;;;;;;5010223;28;97802;-73
2022/06/30 20:46:28;;;;;;;6.20;2.80;;;;;;;;;;5013097;28;95880;-74
2022/06/30 20:51:42;;;;;;;6.88;3.00;;;;;;;;;;5003629;28;95747;-74
2022/06/30 20:54:15;;;;;;;5.07;3.22;;;;;;;;;;5001058;28;97325;-74
2022/06/30 20:56:43;;;;;;;5.72;3.38;;;;;;;;;;4990889;28;98076;-73
2022/06/30 20:59:10;;;;;;;4.78;2.90;;;;;;;;;;5007337;28;95820;-74
2022/06/30 21:01:37;;;;;;;9.32;3.60;;;;;;;;;;5010320;28;96803;-74
2022/06/30 21:04:03;;;;;;;6.60;3.50;;;;;;;;;;5011215;28;98161;-74
2022/06/30 21:06:30;;;;;;;8.00;4.03;;;;;;;;;;5011029;28;96128;-74
2022/06/30 21:08:57;;;;;;;8.90;4.20;;;;;;;;;;5012566;28;96205;-73
2022/06/30 21:11:25;;;;;;;7.65;5.00;;;;;;;;;;5008438;28;95385;-73
2022/06/30 21:13:51;;;;;;;9.57;5.50;;;;;;;;;;5008649;28;97708;-74
2022/06/30 21:16:18;;;;;;;13.32;6.07;;;;;;;;;;5008571;28;97929;-73
2022/06/30 21:18:45;;;;;;;12.18;5.95;;;;;;;;;;5008412;28;95498;-73
2022/06/30 21:21:11;;;;;;;11.80;6.47;;;;;;;;;;5009751;28;96456;-73
2022/06/30 21:23:38;;;;;;;11.00;6.78;;;;;;;;;;5008239;28;98041;-74
2022/06/30 21:26:05;;;;;;;12.63;7.13;;;;;;;;;;5010066;28;95275;-73
2022/06/30 21:28:31;;;;;;;12.20;7.47;;;;;;;;;;5010388;28;96242;-73
2022/06/30 21:30:57;;;;;;;12.10;6.95;;;;;;;;;;5012322;28;95560;-74
2022/06/30 21:33:24;;;;;;;10.82;6.95;;;;;;;;;;5009613;28;96776;-73
2022/06/30 21:35:51;;;;;;;11.15;6.90;;;;;;;;;;5009918;28;96815;-73
2022/06/30 21:38:17;;;;;;;9.60;5.68;;;;;;;;;;5010570;28;95599;-73
2022/06/30 21:40:44;;;;;;;8.98;5.50;;;;;;;;;;5005448;28;97163;-72
2022/06/30 21:43:10;;;;;;;9.00;6.00;;;;;;;;;;5005461;28;97196;-73
2022/06/30 21:45:39;;;;;;;9.70;6.05;;;;;;;;;;5009765;28;95793;-73
2022/06/30 21:48:09;;;;;;;9.25;5.53;;;;;;;;;;5010668;28;96292;-73
2022/06/30 21:50:36;;;;;;;9.35;4.90;;;;;;;;;;5012061;28;98047;-74
2022/06/30 21:53:05;;;;;;;10.48;5.53;;;;;;;;;;5007035;28;97286;-73
2022/06/30 21:55:33;;;;;;;11.68;6.07;;;;;;;;;;5007663;28;96744;-73
2022/06/30 21:57:59;;;;;;;8.27;4.90;;;;;;;;;;5010149;28;95051;-73
2022/06/30 22:00:26;;;;;;;7.75;5.00;;;;;;;;;;5008151;28;97519;-73
2022/06/30 22:02:53;;;;;;;11.18;5.50;;;;;;;;;;5008910;28;97998;-73
2022/06/30 22:05:20;;;;;;;14.07;5.10;;;;;;;;;;5009371;28;95421;-73
2022/06/30 22:07:46;;;;;;;8.85;4.93;;;;;;;;;;5010299;28;97684;-73
2022/06/30 22:10:13;;;;;;;8.18;4.82;;;;;;;;;;5008569;28;96635;-74
2022/06/30 22:12:39;;;;;;;9.38;4.75;;;;;;;;;;5010343;28;95425;-73
2022/06/30 22:15:07;;;;;;;7.57;4.32;;;;;;;;;;5008181;28;97578;-74
2022/06/30 22:17:34;;;;;;;8.20;4.45;;;;;;;;;;5003735;28;96855;-73
2022/06/30 22:20:00;;;;;;;7.82;4.50;;;;;;;;;;4990123;28;100305;-73
2022/06/30 22:22:27;;;;;;;8.43;4.75;;;;;;;;;;5002207;28;97494;-73
2022/06/30 22:24:53;;;;;;;10.77;4.38;;;;;;;;;;4989143;28;95419;-73
2022/06/30 22:27:20;;;;;;;8.10;4.65;;;;;;;;;;5003503;28;96326;-73
2022/06/30 22:29:48;;;;;;;9.02;4.78;;;;;;;;;;5009413;28;96792;-73
2022/06/30 22:32:14;;;;;;;9.60;5.05;;;;;;;;;;5007004;28;95428;-73
2022/06/30 22:34:41;;;;;;;7.03;4.57;;;;;;;;;;5012733;28;96316;-74
2022/06/30 22:37:08;;;;;;;9.82;5.57;;;;;;;;;;5008822;28;95652;-72
2022/06/30 22:39:34;;;;;;;9.07;5.78;;;;;;;;;;5009147;28;97369;-73
2022/06/30 22:42:01;;;;;;;10.05;5.88;;;;;;;;;;5005387;28;96937;-73
2022/06/30 22:44:28;;;;;;;14.35;6.88;;;;;;;;;;5009412;28;95567;-74
2022/06/30 22:46:54;;;;;;;12.82;6.65;;;;;;;;;;5000309;28;96072;-74
2022/06/30 22:49:21;;;;;;;12.15;7.28;;;;;;;;;;4993003;28;96969;-73
2022/06/30 22:51:48;;;;;;;14.23;8.73;;;;;;;;;;5006739;28;95424;-74
2022/06/30 22:54:14;;;;;;;15.07;8.70;;;;;;;;;;5005843;28;97453;-74
2022/06/30 22:56:41;;;;;;;16.13;9.07;;;;;;;;;;4991274;28;97765;-74
2022/06/30 22:59:07;;;;;;;19.63;9.55;;;;;;;;;;4997830;28;97618;-73
2022/06/30 23:01:34;;;;;;;19.00;9.63;;;;;;;;;;5006309;28;96740;-73
2022/06/30 23:04:00;;;;;;;16.60;9.40;;;;;;;;;;5008446;28;96319;-73
2022/06/30 23:06:27;;;;;;;18.02;10.35;;;;;;;;;;5008123;28;97348;-74
2022/06/30 23:08:54;;;;;;;17.80;9.95;;;;;;;;;;5005706;28;97638;-74
2022/06/30 23:11:20;;;;;;;19.08;10.63;;;;;;;;;;5008292;28;95401;-73
2022/06/30 23:13:49;;;;;;;21.23;11.50;;;;;;;;;;5008061;28;97240;-73
2022/06/30 23:16:16;;;;;;;22.77;12.02;;;;;;;;;;5004348;28;96701;-74
2022/06/30 23:18:42;;;;;;;28.58;13.10;;;;;;;;;;5008431;28;95412;-73
2022/06/30 23:21:09;;;;;;;25.85;13.65;;;;;;;;;;5006329;28;97393;-72
2022/06/30 23:23:36;;;;;;;30.73;16.48;;;;;;;;;;5008003;28;95396;-73
2022/06/30 23:26:02;;;;;;;28.90;15.68;;;;;;;;;;5007173;28;97909;-72
2022/06/30 23:28:29;;;;;;;26.80;14.93;;;;;;;;;;5006453;28;98225;-72
2022/06/30 23:30:55;;;;;;;31.77;16.25;;;;;;;;;;5007937;28;96090;-74
2022/06/30 23:33:22;;;;;;;26.80;15.73;;;;;;;;;;5007228;28;96412;-73
2022/06/30 23:35:48;;;;;;;31.50;16.30;;;;;;;;;;5005889;28;98288;-73
2022/06/30 23:38:15;;;;;;;26.75;15.57;;;;;;;;;;5010448;28;95616;-73
2022/06/30 23:40:42;;;;;;;28.55;15.40;;;;;;;;;;5005656;28;98148;-73
2022/06/30 23:43:08;;;;;;;30.60;16.25;;;;;;;;;;5007032;28;95620;-73
2022/06/30 23:45:35;;;;;;;26.67;15.73;;;;;;;;;;5004362;28;98121;-73
2022/06/30 23:48:02;;;;;;;29.17;15.25;;;;;;;;;;5007804;28;98025;-73
2022/06/30 23:50:28;;;;;;;27.00;15.40;;;;;;;;;;4991383;28;95480;-73
2022/06/30 23:52:55;;;;;;;27.38;15.10;;;;;;;;;;4996693;28;96625;-73
2022/06/30 23:55:21;;;;;;;28.15;14.68;;;;;;;;;;5006396;28;97927;-73
2022/06/30 23:57:48;;;;;;;22.92;13.52;;;;;;;;;;5007377;28;95575;-73
